イスタンブル の空港の天気 - METARとTAF

アタテュルク国際空港(イスタンブル) ( LTBA / IST ) - トルコ イスタンブル
飛行場実況気象(Metar)
観測時間11/12 17:50 EET (11/12 14:50 UTC)
風向・風速北北東 5m/s
視程10km以上
天気現象
なし
気温20℃
湿度68%
気圧1016hPa
METARLTBA 121450Z 02010KT CAVOK 20/14 Q1016 NOSIG RMK RWY17L 01009KT RWY05 01008KT RWY23 03008KT
過去の天気等 Google飛行場航空写真 Wunderground天気予報

過去48時間のMETAR

飛行場予報(TAF)
発表時間: 11/12 13:40 EET (11/12 10:40 UTC)
予報対象時間: 12日15時 EET ~ 13日21時 EET
風向・風速不定 1m/s
視程10km以上
なし
12日15時 EET ~ 12日18時 EET に徐々に
風向・風速北東 6m/s
13日3時 EET ~ 13日6時 EET に徐々に
風向・風速東南東 5m/s
TAF LTBA 121040Z 1212/1318 VRB02KT CAVOK
BECMG 1212/1215 05012KT
BECMG 1300/1303 11009KT